Time;durP1;ratioP1;P1;durP2;ratioP2;P2;SDS_P1;SDS_P2;PMS_P1;PMS_P2;Temp;Humidity;BMP_temperature;BMP_pressure;BME280_temperature;BME280_humidity;BME280_pressure;Samples;Min_cycle;Max_cycle;Signal;HPM_P1;HPM_P2
2023/04/14 04:26:24;;;;;;;;;;;;;;;;;;;;;
2023/04/14 07:59:07;;;;;;;;;;;;;;;;;;;;;
2023/04/14 08:15:48;;;;;;;;;;;;;;;;;;;;;
2023/04/14 08:35:00;;;;;;;;;;;;;;;;;;;;;
2023/04/14 08:43:45;;;;;;;;;;;;;;;;;;;;;
2023/04/14 08:53:54;;;;;;;;;;;;;;;;;;;;;
2023/04/14 08:59:02;;;;;;;;;;;;;;;;;;;;;
2023/04/14 09:02:07;;;;;;;;;;;;;;;;;;;;;
2023/04/14 09:08:33;;;;;;;;;;;;;;;;;;;;;
2023/04/14 09:14:46;;;;;;;6.28;0.95;;;;;;;;;;6078380;23;20026;-82
2023/04/14 09:23:46;;;;;;;3.80;1.27;;;;;;;;;;6058393;23;20014;-82
2023/04/14 09:54:55;;;;;;;4.88;0.68;;;;;;;;;;6139521;23;20027;-81
2023/04/14 10:10:55;;;;;;;;;;;;;;;;;;;;;
2023/04/14 10:17:22;;;;;;;;;;;;;;;;;;;;;
2023/04/14 10:20:08;;;;;;;4.18;0.70;;;;;;;;;;6003470;23;20086;-81
2023/04/14 10:29:42;;;;;;;;;;;;;;;;;;5839973;24;20350;-81
2023/04/14 10:36:14;;;;;;;;;;;;;;;;;;;;;
2023/04/14 10:42:18;;;;;;;4.03;0.65;;;;;;;;;;5918839;24;20013;-81
2023/04/14 10:45:22;;;;;;;3.80;0.63;;;;;;;;;;5865829;24;20029;-81
2023/04/14 11:19:38;;;;;;;2.47;0.35;;;;;;;;;;6210673;23;20582;-81
2023/04/14 11:22:44;;;;;;;2.85;0.50;;;;;;;;;;6232984;23;20040;-81
2023/04/14 12:06:31;;;;;;;3.90;0.60;;;;;;;;;;6236197;23;20073;-81
2023/04/14 13:19:06;;;;;;;;;;;;;;;;;;;;;
2023/04/14 13:34:43;;;;;;;2.92;0.70;;;;;;;;;;6233750;22;20068;-81
2023/04/14 13:43:51;;;;;;;;;;;;;;;;;;;;;
2023/04/14 14:07:17;;;;;;;7.35;1.02;;;;;;;;;;6089479;23;20021;-81
2023/04/14 14:19:16;;;;;;;;;;;;;;;;;;;;;
2023/04/14 14:52:39;;;;;;;;;;;;;;;;;;;;;
2023/04/14 15:05:06;;;;;;;3.58;0.77;;;;;;;;;;6003852;23;20023;-82
2023/04/14 15:11:28;;;;;;;4.00;0.70;;;;;;;;;;6025673;23;20699;-82
2023/04/14 15:26:18;;;;;;;3.15;0.60;;;;;;;;;;6210131;23;20007;-82
2023/04/14 15:32:23;;;;;;;4.13;1.00;;;;;;;;;;6210387;23;20091;-83
2023/04/14 15:38:15;;;;;;;5.28;0.80;;;;;;;;;;6187002;23;20020;-82
2023/04/14 15:41:12;;;;;;;3.15;0.60;;;;;;;;;;6194064;23;20079;-83
2023/04/14 15:43:38;;;;;;;7.20;0.63;;;;;;;;;;6179654;23;20021;-81
2023/04/14 15:46:20;;;;;;;5.72;0.90;;;;;;;;;;6202531;23;20437;-81
2023/04/14 15:48:51;;;;;;;6.60;0.90;;;;;;;;;;6180220;23;20735;-80
2023/04/14 15:51:17;;;;;;;9.05;1.02;;;;;;;;;;6203147;23;20432;-81
2023/04/14 15:53:47;;;;;;;3.85;0.50;;;;;;;;;;6202514;23;20013;-81
2023/04/14 15:56:13;;;;;;;5.75;0.75;;;;;;;;;;6202248;23;20016;-81
2023/04/14 15:58:55;;;;;;;5.72;0.80;;;;;;;;;;6177582;23;20012;-81
2023/04/14 16:02:01;;;;;;;2.88;0.60;;;;;;;;;;6203480;23;20024;-81
2023/04/14 16:04:56;;;;;;;3.25;1.10;;;;;;;;;;6082746;23;20026;-82
2023/04/14 16:07:34;;;;;;;2.03;0.55;;;;;;;;;;6175109;23;20025;-82
2023/04/14 16:10:03;;;;;;;4.28;0.52;;;;;;;;;;6203695;23;20099;-81
2023/04/14 16:12:29;;;;;;;1.27;0.30;;;;;;;;;;6203321;23;20032;-80
2023/04/14 16:15:04;;;;;;;2.55;0.20;;;;;;;;;;6179586;23;20063;-83
2023/04/14 16:17:36;;;;;;;2.50;0.35;;;;;;;;;;6179786;23;20032;-82
2023/04/14 16:20:18;;;;;;;;;;;;;;;;;;;;;
2023/04/14 16:22:45;;;;;;;1.58;0.30;;;;;;;;;;6180747;23;20019;-82
2023/04/14 16:25:33;;;;;;;1.92;0.30;;;;;;;;;;6179474;23;20010;-83
2023/04/14 16:28:01;;;;;;;2.35;0.40;;;;;;;;;;6180155;23;20066;-82
2023/04/14 16:40:01;;;;;;;2.95;0.43;;;;;;;;;;6181524;23;20047;-82
2023/04/14 16:46:26;;;;;;;1.40;0.30;;;;;;;;;;6222728;22;20089;-82
2023/04/14 16:54:35;;;;;;;1.40;0.28;;;;;;;;;;6237939;22;20031;-79
2023/04/14 16:57:01;;;;;;;2.95;0.30;;;;;;;;;;6241577;23;20050;-79
2023/04/14 16:59:28;;;;;;;4.53;0.55;;;;;;;;;;6240793;23;20612;-80
2023/04/14 17:01:57;;;;;;;6.25;0.47;;;;;;;;;;6240941;23;20498;-81
2023/04/14 17:04:33;;;;;;;2.75;0.32;;;;;;;;;;6229170;23;20008;-81
2023/04/14 17:07:02;;;;;;;2.70;0.40;;;;;;;;;;6230423;23;20008;-81
2023/04/14 17:09:44;;;;;;;2.63;0.40;;;;;;;;;;6240234;23;20091;-82
2023/04/14 17:12:16;;;;;;;3.72;0.50;;;;;;;;;;6241365;23;20027;-81
2023/04/14 17:14:47;;;;;;;3.30;1.05;;;;;;;;;;6240090;23;20016;-81
2023/04/14 17:17:17;;;;;;;4.10;0.90;;;;;;;;;;6233098;23;20016;-81
2023/04/14 17:19:45;;;;;;;3.67;1.02;;;;;;;;;;6238583;23;20081;-81
2023/04/14 17:22:14;;;;;;;2.78;0.50;;;;;;;;;;6232935;23;20012;-81
2023/04/14 17:24:44;;;;;;;1.90;0.47;;;;;;;;;;6241379;23;20007;-81
2023/04/14 17:27:10;;;;;;;2.78;0.52;;;;;;;;;;6224169;23;20092;-78
2023/04/14 17:29:36;;;;;;;2.15;0.40;;;;;;;;;;6237310;22;20007;-80
2023/04/14 17:32:02;;;;;;;1.40;0.40;;;;;;;;;;6241664;23;20435;-78
2023/04/14 17:34:29;;;;;;;1.75;0.63;;;;;;;;;;6242404;23;20304;-81
2023/04/14 17:36:58;;;;;;;1.92;0.40;;;;;;;;;;6214864;23;20019;-80
2023/04/14 17:39:26;;;;;;;1.58;0.38;;;;;;;;;;6214223;23;20027;-80
2023/04/14 17:41:55;;;;;;;2.67;0.60;;;;;;;;;;6240173;23;20058;-80
2023/04/14 17:44:31;;;;;;;2.55;0.30;;;;;;;;;;6242153;23;20443;-79
2023/04/14 17:47:00;;;;;;;2.78;0.30;;;;;;;;;;6242070;23;20008;-79
2023/04/14 17:49:27;;;;;;;3.22;0.30;;;;;;;;;;6215670;23;20008;-81
2023/04/14 17:51:53;;;;;;;4.60;0.30;;;;;;;;;;6242366;23;20013;-80
2023/04/14 17:54:20;;;;;;;2.25;0.30;;;;;;;;;;6241927;23;20091;-80
2023/04/14 17:56:46;;;;;;;1.55;0.63;;;;;;;;;;6241916;23;20004;-80
2023/04/14 17:59:12;;;;;;;2.70;0.50;;;;;;;;;;6242383;23;20004;-80
2023/04/14 18:01:39;;;;;;;1.77;0.30;;;;;;;;;;6241870;23;20015;-79
2023/04/14 18:04:05;;;;;;;1.60;0.30;;;;;;;;;;6241895;23;20011;-79
2023/04/14 18:06:34;;;;;;;1.02;0.40;;;;;;;;;;6241148;23;20042;-80
2023/04/14 18:09:00;;;;;;;3.55;0.32;;;;;;;;;;6242373;23;20451;-81
2023/04/14 18:11:26;;;;;;;1.30;0.30;;;;;;;;;;6241136;23;20005;-78
2023/04/14 18:13:52;;;;;;;1.30;0.40;;;;;;;;;;6215025;23;20083;-79
2023/04/14 18:16:19;;;;;;;2.85;0.45;;;;;;;;;;6241076;23;20009;-79
2023/04/14 18:18:45;;;;;;;2.75;0.32;;;;;;;;;;6241561;23;20522;-80
2023/04/14 18:21:11;;;;;;;1.50;0.30;;;;;;;;;;6214091;23;20058;-80
2023/04/14 18:23:38;;;;;;;3.10;0.57;;;;;;;;;;6214491;23;20340;-78
2023/04/14 18:26:04;;;;;;;3.38;0.40;;;;;;;;;;6241916;23;20074;-80
2023/04/14 18:28:34;;;;;;;3.75;0.60;;;;;;;;;;6242186;23;20019;-78
2023/04/14 18:31:00;;;;;;;1.65;0.40;;;;;;;;;;6211722;22;20102;-77
2023/04/14 18:33:44;;;;;;;7.72;0.50;;;;;;;;;;6241678;23;20012;-80
2023/04/14 18:36:10;;;;;;;2.03;0.22;;;;;;;;;;6238817;23;20050;-80
2023/04/14 18:38:36;;;;;;;1.10;0.40;;;;;;;;;;6227508;23;20325;-79
2023/04/14 18:41:05;;;;;;;2.72;0.38;;;;;;;;;;6238718;23;20054;-79
2023/04/14 18:43:32;;;;;;;1.38;0.43;;;;;;;;;;6229794;23;20514;-78
2023/04/14 18:45:58;;;;;;;4.18;0.60;;;;;;;;;;6239015;23;20481;-80
2023/04/14 18:48:24;;;;;;;5.40;2.20;;;;;;;;;;6231889;23;20004;-80
2023/04/14 18:51:03;;;;;;;9.13;5.90;;;;;;;;;;6235962;23;20013;-80
2023/04/14 18:53:29;;;;;;;4.85;2.38;;;;;;;;;;6230704;23;20008;-80
2023/04/14 18:55:56;;;;;;;4.55;1.13;;;;;;;;;;6235603;23;20335;-80
2023/04/14 18:58:22;;;;;;;3.28;0.40;;;;;;;;;;6231441;23;20016;-80
2023/04/14 19:00:48;;;;;;;3.00;0.40;;;;;;;;;;6238418;23;20027;-80
2023/04/14 19:03:15;;;;;;;4.05;0.70;;;;;;;;;;6238861;23;20012;-80
2023/04/14 19:05:41;;;;;;;2.42;0.50;;;;;;;;;;6239700;23;20023;-80
2023/04/14 19:08:07;;;;;;;4.25;0.50;;;;;;;;;;6239342;23;20015;-80
2023/04/14 19:10:35;;;;;;;2.63;0.50;;;;;;;;;;6241739;23;20008;-80
2023/04/14 19:13:01;;;;;;;2.35;0.40;;;;;;;;;;6238839;23;20106;-80
2023/04/14 19:15:27;;;;;;;1.90;0.40;;;;;;;;;;6239875;23;20615;-79
2023/04/14 19:17:53;;;;;;;1.60;0.50;;;;;;;;;;6235112;23;20043;-80
2023/04/14 19:20:20;;;;;;;3.33;0.40;;;;;;;;;;6232523;23;20037;-79
2023/04/14 19:22:46;;;;;;;2.38;0.55;;;;;;;;;;6238084;23;20007;-79
2023/04/14 19:25:12;;;;;;;2.88;0.50;;;;;;;;;;6224338;23;20012;-79
2023/04/14 19:27:39;;;;;;;1.92;0.52;;;;;;;;;;6235962;23;20050;-79
2023/04/14 19:30:05;;;;;;;1.48;0.40;;;;;;;;;;6229931;23;20729;-79
2023/04/14 19:32:32;;;;;;;2.72;0.70;;;;;;;;;;6240030;23;20020;-79
2023/04/14 19:34:58;;;;;;;3.20;0.50;;;;;;;;;;6229324;23;20019;-79
2023/04/14 19:37:25;;;;;;;4.43;0.85;;;;;;;;;;6237972;23;20058;-80
2023/04/14 19:39:52;;;;;;;1.42;0.32;;;;;;;;;;6228302;23;20051;-79
2023/04/14 19:42:18;;;;;;;2.15;0.50;;;;;;;;;;6240124;23;20450;-79
2023/04/14 19:44:44;;;;;;;3.15;0.60;;;;;;;;;;6228530;23;20075;-80
2023/04/14 19:47:10;;;;;;;2.67;0.65;;;;;;;;;;6239984;23;20008;-80
2023/04/14 19:49:36;;;;;;;2.20;0.60;;;;;;;;;;6228470;23;20012;-79
2023/04/14 19:52:03;;;;;;;2.00;0.50;;;;;;;;;;6239320;23;20074;-79
2023/04/14 19:54:29;;;;;;;2.50;0.57;;;;;;;;;;6228026;23;20039;-79
2023/04/14 19:56:55;;;;;;;4.63;0.60;;;;;;;;;;6241061;23;20012;-79
2023/04/14 19:59:21;;;;;;;3.00;0.60;;;;;;;;;;6238838;23;20012;-79
2023/04/14 20:01:50;;;;;;;3.83;0.70;;;;;;;;;;6240531;23;20075;-80
2023/04/14 20:04:16;;;;;;;2.47;0.63;;;;;;;;;;6227702;23;20035;-79
2023/04/14 20:06:42;;;;;;;2.42;0.80;;;;;;;;;;6238637;23;20008;-80
2023/04/14 20:09:08;;;;;;;2.45;0.63;;;;;;;;;;6227501;23;20079;-79
2023/04/14 20:11:34;;;;;;;3.60;0.52;;;;;;;;;;6240501;23;20067;-80
2023/04/14 20:14:00;;;;;;;3.38;0.70;;;;;;;;;;6227492;23;20054;-80
2023/04/14 20:16:26;;;;;;;2.58;0.60;;;;;;;;;;6238883;23;20070;-80
2023/04/14 20:18:52;;;;;;;4.03;0.60;;;;;;;;;;6227508;23;20747;-79
2023/04/14 20:21:18;;;;;;;1.80;0.55;;;;;;;;;;6239036;23;20012;-79
2023/04/14 20:23:45;;;;;;;2.90;0.75;;;;;;;;;;6237636;23;20008;-79
2023/04/14 20:26:11;;;;;;;2.30;0.60;;;;;;;;;;6240626;23;20039;-79
2023/04/14 20:28:38;;;;;;;2.72;0.70;;;;;;;;;;6227139;23;20320;-79
2023/04/14 20:31:07;;;;;;;3.97;0.82;;;;;;;;;;6241012;23;20053;-79
2023/04/14 20:33:33;;;;;;;3.47;0.70;;;;;;;;;;6226846;23;20051;-79
2023/04/14 20:36:00;;;;;;;2.22;0.60;;;;;;;;;;6238769;23;20019;-79
2023/04/14 20:38:26;;;;;;;5.07;0.70;;;;;;;;;;6236980;23;20004;-79
2023/04/14 20:40:52;;;;;;;4.88;0.80;;;;;;;;;;6240174;23;20008;-79
2023/04/14 20:43:18;;;;;;;3.70;1.00;;;;;;;;;;6229466;23;20055;-79
2023/04/14 20:45:45;;;;;;;1.98;0.50;;;;;;;;;;6235772;23;20008;-79
2023/04/14 20:48:12;;;;;;;3.92;0.70;;;;;;;;;;6238594;23;20075;-79
2023/04/14 20:50:38;;;;;;;2.90;0.60;;;;;;;;;;6238936;23;20043;-79
2023/04/14 20:53:04;;;;;;;5.05;1.00;;;;;;;;;;6238364;23;20008;-79
2023/04/14 20:55:30;;;;;;;2.75;0.75;;;;;;;;;;6238760;23;20048;-79
2023/04/14 20:57:57;;;;;;;3.45;0.70;;;;;;;;;;6235121;23;20011;-79
2023/04/14 21:00:23;;;;;;;1.98;0.52;;;;;;;;;;6231631;23;20671;-79
2023/04/14 21:02:50;;;;;;;2.70;0.55;;;;;;;;;;6236950;23;20004;-79
2023/04/14 21:05:18;;;;;;;5.35;0.90;;;;;;;;;;6223142;23;20060;-79
2023/04/14 21:07:44;;;;;;;5.20;1.08;;;;;;;;;;6233330;23;20028;-78
2023/04/14 21:10:11;;;;;;;3.80;0.93;;;;;;;;;;6227531;23;20013;-79
2023/04/14 21:12:37;;;;;;;5.88;1.00;;;;;;;;;;6238092;23;20012;-79
2023/04/14 21:15:04;;;;;;;4.68;1.00;;;;;;;;;;6226895;23;20012;-79
2023/04/14 21:17:31;;;;;;;2.97;0.85;;;;;;;;;;6240641;23;20012;-80
2023/04/14 21:19:57;;;;;;;3.05;0.90;;;;;;;;;;6230180;23;20008;-79
2023/04/14 21:22:23;;;;;;;3.17;0.70;;;;;;;;;;6240474;23;20074;-79
2023/04/14 21:24:49;;;;;;;5.03;1.13;;;;;;;;;;6229003;23;20004;-79
2023/04/14 21:27:16;;;;;;;8.20;1.10;;;;;;;;;;6242305;23;20008;-80
2023/04/14 21:29:42;;;;;;;4.57;1.02;;;;;;;;;;6229425;23;20007;-79
2023/04/14 21:32:08;;;;;;;4.15;0.90;;;;;;;;;;6242583;23;20020;-80
2023/04/14 21:34:35;;;;;;;4.63;1.00;;;;;;;;;;6229587;23;20473;-80
2023/04/14 21:37:01;;;;;;;6.63;1.88;;;;;;;;;;6242594;23;20019;-79
2023/04/14 21:39:28;;;;;;;6.70;1.95;;;;;;;;;;6239840;23;20012;-79
2023/04/14 21:41:57;;;;;;;5.57;1.15;;;;;;;;;;6241793;23;20087;-80
2023/04/14 21:44:23;;;;;;;6.88;1.30;;;;;;;;;;6230247;23;20011;-79
2023/04/14 21:46:49;;;;;;;4.05;1.25;;;;;;;;;;6239351;23;20012;-80
2023/04/14 21:49:16;;;;;;;6.78;1.40;;;;;;;;;;6229941;23;20012;-80
2023/04/14 21:51:42;;;;;;;5.70;2.05;;;;;;;;;;6240090;23;20095;-80
2023/04/14 21:54:09;;;;;;;6.30;1.60;;;;;;;;;;6229339;23;20008;-81
2023/04/14 21:56:36;;;;;;;7.00;2.15;;;;;;;;;;6240156;23;20032;-81
2023/04/14 21:59:03;;;;;;;7.90;1.23;;;;;;;;;;6239810;23;20106;-81
2023/04/14 22:01:30;;;;;;;3.95;1.02;;;;;;;;;;6241088;23;20098;-81
2023/04/14 22:03:56;;;;;;;4.00;0.90;;;;;;;;;;6229987;23;20050;-81
2023/04/14 22:06:23;;;;;;;3.72;1.02;;;;;;;;;;6241230;23;20008;-81
2023/04/14 22:08:49;;;;;;;3.50;1.25;;;;;;;;;;6229313;23;20070;-81
2023/04/14 22:11:15;;;;;;;4.47;0.90;;;;;;;;;;6239733;23;20008;-81
2023/04/14 22:13:41;;;;;;;5.07;1.42;;;;;;;;;;6240302;23;20019;-81
2023/04/14 22:16:10;;;;;;;10.35;1.58;;;;;;;;;;6241070;23;20012;-81
2023/04/14 22:18:40;;;;;;;3.20;0.80;;;;;;;;;;6229075;23;20059;-81
2023/04/14 22:21:08;;;;;;;4.95;0.98;;;;;;;;;;6241094;23;20019;-80
2023/04/14 22:23:34;;;;;;;4.07;1.00;;;;;;;;;;6229701;23;20008;-80
2023/04/14 22:26:01;;;;;;;3.05;0.90;;;;;;;;;;6228848;23;20011;-80
2023/04/14 22:28:27;;;;;;;4.05;0.98;;;;;;;;;;6231779;23;20308;-81
2023/04/14 22:30:53;;;;;;;3.60;1.00;;;;;;;;;;6240340;23;20016;-81
2023/04/14 22:33:19;;;;;;;3.85;1.13;;;;;;;;;;6235277;23;20059;-81
2023/04/14 22:35:45;;;;;;;3.40;1.10;;;;;;;;;;6234489;23;20467;-81
2023/04/14 22:38:11;;;;;;;3.65;1.10;;;;;;;;;;6212058;23;20009;-80
2023/04/14 22:40:37;;;;;;;4.45;1.00;;;;;;;;;;6211064;23;20363;-80
2023/04/14 22:43:07;;;;;;;3.20;0.90;;;;;;;;;;6235772;23;20043;-81
2023/04/14 22:45:35;;;;;;;4.75;1.20;;;;;;;;;;6210456;23;20297;-80
2023/04/14 22:48:01;;;;;;;3.53;0.98;;;;;;;;;;6235639;23;20012;-81
2023/04/14 22:50:29;;;;;;;5.05;1.13;;;;;;;;;;6210810;23;20004;-80
2023/04/14 22:52:55;;;;;;;2.45;1.00;;;;;;;;;;6235264;23;20019;-81
2023/04/14 22:55:21;;;;;;;3.17;1.10;;;;;;;;;;6210755;23;20008;-80
2023/04/14 22:57:47;;;;;;;5.10;1.40;;;;;;;;;;6211618;23;20001;-80
2023/04/14 23:00:15;;;;;;;6.82;1.58;;;;;;;;;;6234981;23;20016;-80
2023/04/14 23:02:41;;;;;;;5.43;1.63;;;;;;;;;;6211003;23;20012;-80
2023/04/14 23:05:09;;;;;;;5.13;1.33;;;;;;;;;;6211528;23;20009;-80
2023/04/14 23:07:36;;;;;;;6.68;1.38;;;;;;;;;;6234269;23;20059;-81
2023/04/14 23:10:02;;;;;;;4.95;1.50;;;;;;;;;;6209692;23;20089;-80
2023/04/14 23:12:28;;;;;;;6.30;1.40;;;;;;;;;;6210507;23;20359;-81
2023/04/14 23:14:55;;;;;;;5.25;1.30;;;;;;;;;;6210075;23;20035;-81
2023/04/14 23:17:21;;;;;;;3.53;1.10;;;;;;;;;;6235490;23;20009;-81
2023/04/14 23:19:47;;;;;;;6.50;1.30;;;;;;;;;;6211217;23;20013;-81
2023/04/14 23:22:14;;;;;;;4.07;0.90;;;;;;;;;;6234999;23;20030;-81
2023/04/14 23:24:40;;;;;;;4.55;1.48;;;;;;;;;;6211226;23;20051;-80
2023/04/14 23:27:07;;;;;;;4.35;1.38;;;;;;;;;;6235646;23;20016;-80
2023/04/14 23:29:33;;;;;;;4.25;1.50;;;;;;;;;;6210992;23;20471;-81
2023/04/14 23:32:04;;;;;;;6.25;1.73;;;;;;;;;;6234422;23;20029;-81
2023/04/14 23:34:31;;;;;;;7.78;1.55;;;;;;;;;;6234292;23;20017;-81
2023/04/14 23:39:57;;;;;;;3.00;1.27;;;;;;;;;;6209452;23;20012;-81
2023/04/14 23:42:28;;;;;;;3.40;1.17;;;;;;;;;;6234222;23;20340;-81
2023/04/14 23:44:56;;;;;;;4.10;1.35;;;;;;;;;;6210365;23;20011;-80
2023/04/14 23:47:30;;;;;;;4.32;1.70;;;;;;;;;;6235158;23;20017;-81
2023/04/14 23:50:00;;;;;;;5.57;1.30;;;;;;;;;;6234875;23;20642;-81
2023/04/14 23:52:34;;;;;;;4.43;1.10;;;;;;;;;;6234946;23;20018;-81
2023/04/14 23:55:19;;;;;;;4.47;1.70;;;;;;;;;;6209684;23;20016;-81
2023/04/14 23:57:47;;;;;;;4.10;1.17;;;;;;;;;;6234326;23;20012;-80
